Terminal Aerodrome Forecast
Issued by NWS

Home | Current Version | Previous Version | Text Only | Print | Product List | Glossary On
Versions: 1 2 3 4 5 6 7 8 9 10 11 12 13
000
FTUS43 KMQT 251738
TAFCMX
TAF
KCMX 251738Z 2518/2618 27018G25KT P6SM SKC
     FM260300 27015G22KT P6SM SCT050
     FM260500 29012KT P6SM BKN040
     FM260700 30008KT P6SM BKN035
     FM260900 33007KT P6SM BKN030
     FM261600 35006KT P6SM SCT025=

USA.gov is the U.S. government's official web portal to all federal, state and local government web resources and services.